Time;durP1;ratioP1;P1;durP2;ratioP2;P2;SDS_P1;SDS_P2;PMS_P1;PMS_P2;Temp;Humidity;BMP_temperature;BMP_pressure;BME280_temperature;BME280_humidity;BME280_pressure;Samples;Min_cycle;Max_cycle;Signal;HPM_P1;HPM_P2
2022/12/19 00:00:05;;;;;;;;;;;20.90;60.00;;;;;;1571811;74;769;-72
2022/12/19 00:02:07;;;;;;;;;;;20.90;60.30;;;;;;1567939;74;738;-73
2022/12/19 00:04:09;;;;;;;;;;;20.90;60.40;;;;;;1572790;74;746;-70
2022/12/19 00:06:11;;;;;;;;;;;20.80;60.40;;;;;;1571758;74;1930;-73
2022/12/19 00:08:14;;;;;;;;;;;20.80;60.50;;;;;;1571951;74;1198;-74
2022/12/19 00:10:16;;;;;;;;;;;20.80;60.50;;;;;;1569825;74;721;-71
2022/12/19 00:12:18;;;;;;;;;;;20.90;60.50;;;;;;1568473;74;717;-72
2022/12/19 00:14:20;;;;;;;;;;;20.80;60.30;;;;;;1567879;74;787;-72
2022/12/19 00:16:22;;;;;;;;;;;20.90;60.30;;;;;;1570878;74;649;-73
2022/12/19 00:18:24;;;;;;;;;;;20.80;60.20;;;;;;1566261;74;1139;-71
2022/12/19 00:20:26;;;;;;;;;;;20.80;60.20;;;;;;1562345;74;1650;-73
2022/12/19 00:22:28;;;;;;;;;;;20.90;60.30;;;;;;1563634;74;697;-71
2022/12/19 00:24:30;;;;;;;;;;;20.90;60.30;;;;;;1570609;74;722;-73
2022/12/19 00:26:32;;;;;;;;;;;20.80;60.30;;;;;;1573053;74;1928;-72
2022/12/19 00:28:34;;;;;;;;;;;20.80;60.40;;;;;;1570141;74;1128;-75
2022/12/19 00:30:36;;;;;;;;;;;20.80;60.30;;;;;;1569304;75;726;-72
2022/12/19 00:32:38;;;;;;;;;;;20.90;60.40;;;;;;1570235;74;797;-73
2022/12/19 00:34:40;;;;;;;;;;;20.90;60.40;;;;;;1569879;74;1651;-73
2022/12/19 00:36:42;;;;;;;;;;;20.90;60.30;;;;;;1559746;74;723;-77
2022/12/19 00:38:44;;;;;;;;;;;20.90;60.30;;;;;;1566426;74;1151;-71
2022/12/19 00:40:46;;;;;;;;;;;20.80;60.30;;;;;;1567457;74;767;-75
2022/12/19 00:42:48;;;;;;;;;;;20.90;60.50;;;;;;1569880;74;679;-72
2022/12/19 00:44:50;;;;;;;;;;;20.90;60.50;;;;;;1571763;74;813;-72
2022/12/19 00:46:51;;;;;;;;;;;20.90;60.50;;;;;;1569241;74;737;-74
2022/12/19 00:48:53;;;;;;;;;;;20.90;60.40;;;;;;1572319;74;1156;-72
2022/12/19 00:50:59;;;;;;;;;;;20.90;60.50;;;;;;1570279;74;770;-71
2022/12/19 00:53:01;;;;;;;;;;;20.90;60.40;;;;;;1570797;74;714;-74
2022/12/19 00:55:03;;;;;;;;;;;21.00;60.40;;;;;;1570794;74;712;-72
2022/12/19 00:57:05;;;;;;;;;;;20.90;60.40;;;;;;1570400;74;705;-72
2022/12/19 00:59:07;;;;;;;;;;;20.90;60.30;;;;;;1570327;74;1099;-72
2022/12/19 01:01:11;;;;;;;;;;;20.90;60.40;;;;;;1571624;75;749;-71
2022/12/19 01:03:13;;;;;;;;;;;20.90;60.50;;;;;;1570734;74;732;-72
2022/12/19 01:05:15;;;;;;;;;;;20.90;60.50;;;;;;1569415;75;1934;-72
2022/12/19 01:07:17;;;;;;;;;;;20.90;60.60;;;;;;1569145;75;692;-73
2022/12/19 01:09:20;;;;;;;;;;;20.90;60.60;;;;;;1568461;74;1151;-71
2022/12/19 01:12:44;;;;;;;;;;;20.90;60.70;;;;;;1566143;74;798;-72
2022/12/19 01:13:26;;;;;;;;;;;20.90;60.60;;;;;;1566411;74;1480;-72
2022/12/19 01:15:28;;;;;;;;;;;20.90;60.60;;;;;;1569765;74;528;-72
2022/12/19 01:17:30;;;;;;;;;;;20.80;60.60;;;;;;1568694;74;775;-72
2022/12/19 01:19:32;;;;;;;;;;;20.90;60.70;;;;;;1569427;74;1075;-72
2022/12/19 01:21:36;;;;;;;;;;;20.90;60.70;;;;;;1570466;74;562;-73
2022/12/19 01:23:38;;;;;;;;;;;20.90;60.50;;;;;;1568960;75;607;-72
2022/12/19 01:25:40;;;;;;;;;;;20.90;60.50;;;;;;1577927;74;1940;-73
2022/12/19 01:27:42;;;;;;;;;;;20.90;60.50;;;;;;1568227;74;1121;-72
2022/12/19 01:29:44;;;;;;;;;;;20.90;60.50;;;;;;1570435;75;586;-74
2022/12/19 01:31:45;;;;;;;;;;;20.90;60.50;;;;;;1559799;74;779;-73
2022/12/19 01:33:47;;;;;;;;;;;20.90;60.60;;;;;;1561855;75;727;-73
2022/12/19 01:35:49;;;;;;;;;;;20.90;60.60;;;;;;1567964;74;682;-72
2022/12/19 01:37:51;;;;;;;;;;;20.90;60.60;;;;;;1572612;74;1170;-73
2022/12/19 01:39:53;;;;;;;;;;;20.90;60.60;;;;;;1579189;74;711;-72
2022/12/19 01:41:55;;;;;;;;;;;20.90;60.60;;;;;;1556925;75;958;-72
2022/12/19 01:44:00;;;;;;;;;;;20.90;60.60;;;;;;1568282;74;1502;-73
2022/12/19 01:46:03;;;;;;;;;;;20.90;60.70;;;;;;1559713;74;1949;-73
2022/12/19 01:48:15;;;;;;;;;;;20.90;60.70;;;;;;1561084;74;1218;-73
2022/12/19 01:50:18;;;;;;;;;;;20.90;60.60;;;;;;1569168;74;757;-72
2022/12/19 01:52:19;;;;;;;;;;;20.90;60.60;;;;;;1570933;74;713;-76
2022/12/19 01:54:22;;;;;;;;;;;20.90;60.50;;;;;;1562502;75;759;-77
2022/12/19 01:56:31;;;;;;;;;;;20.90;60.60;;;;;;1568831;74;729;-73
2022/12/19 01:58:33;;;;;;;;;;;21.00;60.70;;;;;;1568311;74;1150;-73
2022/12/19 02:00:35;;;;;;;;;;;20.90;60.50;;;;;;1570444;74;599;-72
2022/12/19 02:02:38;;;;;;;;;;;20.90;60.60;;;;;;1567238;74;729;-74
2022/12/19 02:04:40;;;;;;;;;;;20.90;60.70;;;;;;1565244;74;689;-73
2022/12/19 02:06:42;;;;;;;;;;;21.00;60.70;;;;;;1567259;74;1942;-73
2022/12/19 02:08:44;;;;;;;;;;;21.00;60.70;;;;;;1567871;74;1197;-72
2022/12/19 02:10:46;;;;;;;;;;;21.00;60.70;;;;;;1569334;74;788;-74
2022/12/19 02:12:48;;;;;;;;;;;21.00;60.70;;;;;;1571760;74;690;-72
2022/12/19 02:14:50;;;;;;;;;;;21.00;60.70;;;;;;1553836;74;743;-73
2022/12/19 02:16:59;;;;;;;;;;;21.00;60.80;;;;;;1571205;74;665;-71
2022/12/19 02:19:03;;;;;;;;;;;21.00;60.70;;;;;;1551136;74;1131;-75
2022/12/19 02:21:13;;;;;;;;;;;21.00;60.80;;;;;;1556686;74;762;-74
2022/12/19 02:23:16;;;;;;;;;;;21.00;60.70;;;;;;1530634;75;1006;-73
2022/12/19 02:25:38;;;;;;;;;;;21.00;60.60;;;;;;1569404;74;1410;-73
2022/12/19 02:27:41;;;;;;;;;;;21.00;60.70;;;;;;1569128;74;1106;-70
2022/12/19 02:29:45;;;;;;;;;;;20.90;60.60;;;;;;1560083;74;862;-72
2022/12/19 02:32:05;;;;;;;;;;;20.90;60.70;;;;;;1571171;74;729;-71
2022/12/19 02:34:20;;;;;;;;;;;21.00;60.60;;;;;;1561375;74;560;-71
2022/12/19 02:36:26;;;;;;;;;;;21.00;60.60;;;;;;1563418;74;700;-72
2022/12/19 02:38:36;;;;;;;;;;;21.00;60.70;;;;;;1568189;74;1141;-69
2022/12/19 02:40:42;;;;;;;;;;;20.90;60.70;;;;;;1568427;74;1571;-71
2022/12/19 02:42:45;;;;;;;;;;;20.90;60.80;;;;;;1561530;75;635;-77
2022/12/19 02:44:51;;;;;;;;;;;20.90;60.70;;;;;;1570174;74;760;-75
2022/12/19 02:46:53;;;;;;;;;;;20.90;60.70;;;;;;1565571;74;1923;-73
2022/12/19 02:48:55;;;;;;;;;;;21.00;60.60;;;;;;1572158;74;1076;-73
2022/12/19 02:50:57;;;;;;;;;;;20.90;60.60;;;;;;1564498;74;710;-73
2022/12/19 02:52:59;;;;;;;;;;;20.90;60.60;;;;;;1564932;74;697;-76
2022/12/19 02:55:02;;;;;;;;;;;21.00;60.60;;;;;;1571438;74;627;-76
2022/12/19 02:57:15;;;;;;;;;;;21.00;60.50;;;;;;1571385;74;894;-76
2022/12/19 02:59:34;;;;;;;;;;;21.00;60.40;;;;;;1573034;74;1170;-77
2022/12/19 03:01:38;;;;;;;;;;;21.00;60.40;;;;;;1568148;74;711;-76
2022/12/19 03:03:41;;;;;;;;;;;21.00;60.30;;;;;;1572232;75;1886;-72
2022/12/19 03:05:48;;;;;;;;;;;21.00;60.20;;;;;;1571151;74;1924;-76
2022/12/19 03:07:57;;;;;;;;;;;21.00;60.20;;;;;;1570950;74;1633;-76
2022/12/19 03:10:13;;;;;;;;;;;21.10;60.10;;;;;;1574024;74;1878;-77
2022/12/19 03:12:16;;;;;;;;;;;21.10;60.10;;;;;;1567540;75;740;-75
2022/12/19 03:14:18;;;;;;;;;;;21.10;60.10;;;;;;1572205;74;666;-76
2022/12/19 03:16:20;;;;;;;;;;;21.10;60.10;;;;;;1572612;74;771;-74
2022/12/19 03:18:22;;;;;;;;;;;21.00;60.20;;;;;;1568010;74;1195;-74
2022/12/19 03:20:35;;;;;;;;;;;21.10;60.30;;;;;;1571260;75;749;-76
2022/12/19 03:22:37;;;;;;;;;;;21.10;60.30;;;;;;1572206;74;2299;-76
2022/12/19 03:24:39;;;;;;;;;;;21.00;60.30;;;;;;1570902;74;721;-75
2022/12/19 03:26:45;;;;;;;;;;;21.10;60.40;;;;;;1569279;75;1922;-73
2022/12/19 03:28:51;;;;;;;;;;;21.00;60.40;;;;;;1568928;74;1047;-74
2022/12/19 03:30:53;;;;;;;;;;;21.00;60.40;;;;;;1571382;74;1672;-75
2022/12/19 03:32:55;;;;;;;;;;;21.00;60.50;;;;;;1571744;74;751;-75
2022/12/19 03:34:58;;;;;;;;;;;21.00;60.70;;;;;;1569769;75;684;-71
2022/12/19 03:37:02;;;;;;;;;;;21.00;60.70;;;;;;1567420;74;1443;-71
2022/12/19 03:39:04;;;;;;;;;;;21.00;60.80;;;;;;1570667;74;1130;-75
2022/12/19 03:41:06;;;;;;;;;;;21.00;60.90;;;;;;1572419;75;724;-74
2022/12/19 03:43:08;;;;;;;;;;;21.00;60.90;;;;;;1571614;75;696;-74
2022/12/19 03:45:10;;;;;;;;;;;21.00;60.90;;;;;;1569054;74;830;-74
2022/12/19 03:47:13;;;;;;;;;;;21.00;61.00;;;;;;1571748;74;1926;-75
2022/12/19 03:49:15;;;;;;;;;;;21.00;61.10;;;;;;1567871;74;1150;-72
2022/12/19 03:51:24;;;;;;;;;;;21.00;61.20;;;;;;1577722;74;924;-73
2022/12/19 03:53:28;;;;;;;;;;;21.00;61.30;;;;;;1569103;75;765;-73
2022/12/19 03:55:31;;;;;;;;;;;21.00;61.30;;;;;;1562271;75;1208;-74
2022/12/19 03:57:34;;;;;;;;;;;21.00;61.30;;;;;;1569993;74;912;-72
2022/12/19 03:59:40;;;;;;;;;;;21.00;61.10;;;;;;1569985;74;1104;-74
2022/12/19 04:01:42;;;;;;;;;;;21.00;60.90;;;;;;1569035;74;746;-73
2022/12/19 04:03:44;;;;;;;;;;;21.00;60.80;;;;;;1568185;74;733;-75
2022/12/19 04:05:46;;;;;;;;;;;21.10;60.80;;;;;;1571265;74;713;-75
2022/12/19 04:07:48;;;;;;;;;;;21.10;60.70;;;;;;1570488;74;1922;-73
2022/12/19 04:09:50;;;;;;;;;;;21.20;60.70;;;;;;1570119;74;721;-73
2022/12/19 04:11:53;;;;;;;;;;;21.10;60.80;;;;;;1566787;75;736;-71
2022/12/19 04:13:57;;;;;;;;;;;21.20;60.80;;;;;;1565723;74;713;-75
2022/12/19 04:16:00;;;;;;;;;;;21.20;60.80;;;;;;1567101;74;737;-72
2022/12/19 04:18:02;;;;;;;;;;;21.20;60.90;;;;;;1550398;75;1184;-74
2022/12/19 04:20:05;;;;;;;;;;;21.20;60.80;;;;;;1576785;74;674;-75
2022/12/19 04:22:09;;;;;;;;;;;21.20;60.80;;;;;;1568070;74;658;-75
2022/12/19 04:24:12;;;;;;;;;;;21.20;60.90;;;;;;1573132;74;719;-75
2022/12/19 04:26:14;;;;;;;;;;;21.20;60.80;;;;;;1572135;74;1935;-72
2022/12/19 04:28:17;;;;;;;;;;;21.20;60.80;;;;;;1570508;74;1155;-75
2022/12/19 04:30:19;;;;;;;;;;;21.20;60.90;;;;;;1565159;74;664;-75
2022/12/19 04:32:22;;;;;;;;;;;21.20;60.90;;;;;;1564592;74;1386;-75
2022/12/19 04:34:23;;;;;;;;;;;21.10;60.70;;;;;;1566850;74;723;-73
2022/12/19 04:36:25;;;;;;;;;;;21.20;60.80;;;;;;1570850;74;729;-73
2022/12/19 04:38:27;;;;;;;;;;;21.20;60.80;;;;;;1570021;74;1138;-75
2022/12/19 04:40:29;;;;;;;;;;;21.20;60.80;;;;;;1572573;74;561;-75
2022/12/19 04:42:31;;;;;;;;;;;21.20;60.80;;;;;;1560269;74;791;-75
2022/12/19 04:44:33;;;;;;;;;;;21.20;60.80;;;;;;1565309;74;707;-75
2022/12/19 04:46:35;;;;;;;;;;;21.20;60.80;;;;;;1567285;74;1946;-74
2022/12/19 04:48:37;;;;;;;;;;;21.30;60.90;;;;;;1565618;74;1138;-74
2022/12/19 04:50:38;;;;;;;;;;;21.30;60.80;;;;;;1573891;74;784;-75
2022/12/19 04:52:40;;;;;;;;;;;21.30;60.80;;;;;;1566730;75;797;-71
2022/12/19 04:54:42;;;;;;;;;;;21.20;60.70;;;;;;1562656;74;597;-78
2022/12/19 04:56:44;;;;;;;;;;;21.30;60.90;;;;;;1568291;75;698;-76
2022/12/19 04:58:46;;;;;;;;;;;21.20;61.10;;;;;;1570600;74;1147;-75
2022/12/19 05:00:48;;;;;;;;;;;21.10;61.30;;;;;;1567283;74;723;-71
2022/12/19 05:02:50;;;;;;;;;;;21.10;61.40;;;;;;1556460;75;695;-75
2022/12/19 05:04:52;;;;;;;;;;;21.10;61.70;;;;;;1570489;74;765;-75
2022/12/19 05:06:53;;;;;;;;;;;21.00;61.70;;;;;;1568448;74;1946;-73
2022/12/19 05:08:55;;;;;;;;;;;21.00;61.70;;;;;;1568930;74;1147;-75
2022/12/19 05:11:00;;;;;;;;;;;21.10;61.70;;;;;;1558057;75;727;-74
2022/12/19 05:13:02;;;;;;;;;;;21.10;61.50;;;;;;1564418;74;728;-72
2022/12/19 05:15:04;;;;;;;;;;;21.20;61.50;;;;;;1567329;74;734;-73
2022/12/19 05:17:06;;;;;;;;;;;21.10;61.80;;;;;;1568660;74;606;-72
2022/12/19 05:19:08;;;;;;;;;;;21.20;61.90;;;;;;1561895;74;1157;-76
2022/12/19 05:21:10;;;;;;;;;;;21.10;61.90;;;;;;1566161;74;708;-76
2022/12/19 05:23:12;;;;;;;;;;;21.10;61.70;;;;;;1571455;75;727;-76
2022/12/19 05:25:14;;;;;;;;;;;21.20;61.20;;;;;;1568807;75;700;-74
2022/12/19 05:27:16;;;;;;;;;;;21.10;61.20;;;;;;1567560;74;1935;-76
2022/12/19 05:29:18;;;;;;;;;;;21.20;61.20;;;;;;1563883;74;1568;-73
2022/12/19 05:31:20;;;;;;;;;;;21.10;61.10;;;;;;1564279;74;661;-76
2022/12/19 05:33:22;;;;;;;;;;;21.20;61.00;;;;;;1573186;74;802;-75
2022/12/19 05:35:24;;;;;;;;;;;21.20;60.80;;;;;;1567742;74;580;-77
2022/12/19 05:37:26;;;;;;;;;;;21.20;60.70;;;;;;1573976;74;708;-76
2022/12/19 05:39:27;;;;;;;;;;;21.30;60.70;;;;;;1572078;74;1123;-74
2022/12/19 05:41:29;;;;;;;;;;;21.30;60.60;;;;;;1564872;74;739;-75
2022/12/19 05:43:31;;;;;;;;;;;21.20;60.40;;;;;;1573387;74;747;-73
2022/12/19 05:45:33;;;;;;;;;;;21.10;60.60;;;;;;1575491;74;773;-77
2022/12/19 05:47:35;;;;;;;;;;;21.10;60.70;;;;;;1569089;75;1958;-75
2022/12/19 05:49:40;;;;;;;;;;;21.10;60.70;;;;;;1572562;74;1092;-76
2022/12/19 05:51:41;;;;;;;;;;;21.10;60.70;;;;;;1567080;75;716;-76
2022/12/19 05:53:43;;;;;;;;;;;21.20;60.70;;;;;;1569935;75;695;-75
2022/12/19 05:55:45;;;;;;;;;;;21.10;60.60;;;;;;1569643;74;702;-76
2022/12/19 05:57:47;;;;;;;;;;;21.20;60.50;;;;;;1569403;74;1052;-76
2022/12/19 05:59:49;;;;;;;;;;;21.20;60.40;;;;;;1567187;75;650;-76
2022/12/19 06:01:51;;;;;;;;;;;21.30;60.50;;;;;;1567909;74;731;-75
2022/12/19 06:03:53;;;;;;;;;;;21.20;60.40;;;;;;1571285;74;664;-76
2022/12/19 06:05:55;;;;;;;;;;;21.10;60.50;;;;;;1571499;74;750;-76
2022/12/19 06:07:57;;;;;;;;;;;21.10;60.60;;;;;;1569915;74;1914;-75
2022/12/19 06:09:59;;;;;;;;;;;21.10;60.80;;;;;;1568232;75;721;-74
2022/12/19 06:12:01;;;;;;;;;;;21.20;60.80;;;;;;1569120;74;764;-77
2022/12/19 06:14:03;;;;;;;;;;;21.10;60.90;;;;;;1565876;74;724;-75
2022/12/19 06:16:06;;;;;;;;;;;21.20;60.80;;;;;;1570435;74;742;-76
2022/12/19 06:18:07;;;;;;;;;;;21.10;60.80;;;;;;1576738;74;1200;-76
2022/12/19 06:20:10;;;;;;;;;;;21.00;60.80;;;;;;1568924;74;723;-74
2022/12/19 06:22:12;;;;;;;;;;;21.00;60.80;;;;;;1571417;74;622;-76
2022/12/19 06:24:14;;;;;;;;;;;21.00;60.80;;;;;;1572140;74;762;-74
2022/12/19 06:26:16;;;;;;;;;;;21.10;60.90;;;;;;1560315;74;1676;-76
2022/12/19 06:28:18;;;;;;;;;;;21.10;60.80;;;;;;1571087;75;1932;-76
2022/12/19 06:30:20;;;;;;;;;;;21.10;60.70;;;;;;1568167;75;764;-76
2022/12/19 06:32:23;;;;;;;;;;;21.20;60.60;;;;;;1571643;74;706;-73
2022/12/19 06:34:25;;;;;;;;;;;21.20;60.60;;;;;;1576415;74;754;-76
2022/12/19 06:36:27;;;;;;;;;;;21.20;60.60;;;;;;1569958;74;768;-75
2022/12/19 06:38:29;;;;;;;;;;;21.20;60.60;;;;;;1567616;74;1141;-76
2022/12/19 06:42:51;;;;;;;;;;;21.00;60.50;;;;;;1569836;75;1625;-76
2022/12/19 06:44:53;;;;;;;;;;;21.10;60.60;;;;;;1564773;74;776;-76
2022/12/19 06:46:55;;;;;;;;;;;21.10;60.60;;;;;;1572259;74;726;-76
2022/12/19 06:48:57;;;;;;;;;;;21.00;60.60;;;;;;1577286;74;1917;-76
2022/12/19 06:50:59;;;;;;;;;;;21.10;60.70;;;;;;1572006;74;714;-76
2022/12/19 06:53:01;;;;;;;;;;;21.10;60.70;;;;;;1566633;74;704;-75
2022/12/19 06:55:03;;;;;;;;;;;21.10;60.70;;;;;;1563896;75;687;-76
2022/12/19 06:57:05;;;;;;;;;;;21.10;60.80;;;;;;1571567;74;759;-74
2022/12/19 06:59:07;;;;;;;;;;;21.10;60.80;;;;;;1569286;74;1138;-77
2022/12/19 07:01:10;;;;;;;;;;;21.00;60.80;;;;;;1570151;74;731;-78
2022/12/19 07:03:12;;;;;;;;;;;21.00;60.70;;;;;;1570193;74;1053;-76
2022/12/19 07:05:14;;;;;;;;;;;21.00;60.60;;;;;;1567823;75;715;-77
2022/12/19 07:07:16;;;;;;;;;;;21.10;60.70;;;;;;1572289;75;1936;-75
2022/12/19 07:09:18;;;;;;;;;;;21.00;60.60;;;;;;1572075;74;1143;-76
2022/12/19 07:11:20;;;;;;;;;;;21.00;60.60;;;;;;1565109;74;726;-75
2022/12/19 07:13:22;;;;;;;;;;;21.10;60.70;;;;;;1560833;75;629;-77
2022/12/19 07:15:24;;;;;;;;;;;21.10;60.70;;;;;;1558022;74;759;-76
2022/12/19 07:17:25;;;;;;;;;;;21.10;60.60;;;;;;1565148;74;753;-75
2022/12/19 07:19:27;;;;;;;;;;;21.10;60.50;;;;;;1571351;74;1159;-77
2022/12/19 07:21:29;;;;;;;;;;;21.20;60.30;;;;;;1564835;75;1389;-76
2022/12/19 07:23:31;;;;;;;;;;;21.30;60.20;;;;;;1564287;74;736;-76
2022/12/19 07:25:33;;;;;;;;;;;21.40;60.10;;;;;;1570756;74;703;-72
2022/12/19 07:27:35;;;;;;;;;;;21.40;60.00;;;;;;1568281;74;1920;-74
2022/12/19 07:29:37;;;;;;;;;;;21.30;60.00;;;;;;1567539;74;1083;-71
2022/12/19 07:31:39;;;;;;;;;;;21.30;60.10;;;;;;1568088;74;698;-75
2022/12/19 07:33:43;;;;;;;;;;;21.30;60.10;;;;;;1571230;75;647;-75
2022/12/19 07:35:45;;;;;;;;;;;21.30;60.20;;;;;;1571237;75;692;-76
2022/12/19 07:37:47;;;;;;;;;;;21.20;60.10;;;;;;1572307;74;1166;-74
2022/12/19 07:39:49;;;;;;;;;;;21.20;60.10;;;;;;1571365;75;720;-77
2022/12/19 07:41:51;;;;;;;;;;;21.30;60.20;;;;;;1569976;75;598;-76
2022/12/19 07:43:52;;;;;;;;;;;21.30;60.20;;;;;;1570520;74;814;-76
2022/12/19 07:45:54;;;;;;;;;;;21.20;60.10;;;;;;1575792;74;769;-73
2022/12/19 07:47:58;;;;;;;;;;;21.20;60.10;;;;;;1562212;75;1933;-74
2022/12/19 07:50:00;;;;;;;;;;;21.20;60.10;;;;;;1537846;76;1168;-76
2022/12/19 07:52:02;;;;;;;;;;;21.10;60.20;;;;;;1571174;74;792;-75
2022/12/19 07:54:07;;;;;;;;;;;21.20;60.10;;;;;;1570820;74;651;-75
2022/12/19 07:56:09;;;;;;;;;;;21.20;60.30;;;;;;1571259;74;698;-75
2022/12/19 07:58:10;;;;;;;;;;;21.20;60.40;;;;;;1572627;74;1135;-77
2022/12/19 08:00:12;;;;;;;;;;;21.20;60.60;;;;;;1567946;74;726;-78
2022/12/19 08:02:14;;;;;;;;;;;21.20;60.40;;;;;;1565156;74;733;-78
2022/12/19 08:04:16;;;;;;;;;;;21.20;60.10;;;;;;1568037;74;788;-75
2022/12/19 08:06:18;;;;;;;;;;;21.40;59.80;;;;;;1567881;74;804;-76
2022/12/19 08:08:20;;;;;;;;;;;21.50;59.60;;;;;;1573486;74;1940;-73
2022/12/19 08:10:22;;;;;;;;;;;21.40;59.30;;;;;;1569662;74;709;-74
2022/12/19 08:12:25;;;;;;;;;;;21.40;59.10;;;;;;1572142;74;717;-73
2022/12/19 08:14:27;;;;;;;;;;;21.50;59.20;;;;;;1568723;74;653;-73
2022/12/19 08:16:29;;;;;;;;;;;21.50;59.10;;;;;;1572124;74;793;-73
2022/12/19 08:18:31;;;;;;;;;;;21.40;58.90;;;;;;1570321;74;1568;-73
2022/12/19 08:20:33;;;;;;;;;;;21.40;58.90;;;;;;1571736;75;776;-73
2022/12/19 08:22:35;;;;;;;;;;;21.40;58.90;;;;;;1568915;75;758;-73
2022/12/19 08:24:37;;;;;;;;;;;21.40;58.90;;;;;;1572753;75;754;-72
2022/12/19 08:26:39;;;;;;;;;;;21.40;58.90;;;;;;1563960;75;814;-76
2022/12/19 08:28:41;;;;;;;;;;;21.40;58.90;;;;;;1573864;74;1918;-74
2022/12/19 08:30:43;;;;;;;;;;;21.40;58.80;;;;;;1573528;74;780;-73
2022/12/19 08:32:45;;;;;;;;;;;21.30;58.70;;;;;;1572936;74;740;-69
2022/12/19 08:34:47;;;;;;;;;;;21.40;58.70;;;;;;1570910;75;781;-71
2022/12/19 08:36:49;;;;;;;;;;;21.40;58.60;;;;;;1569164;74;788;-73
2022/12/19 08:38:50;;;;;;;;;;;21.30;58.60;;;;;;1570534;75;1098;-74
2022/12/19 08:40:53;;;;;;;;;;;21.30;58.50;;;;;;1572750;75;784;-75
2022/12/19 08:42:55;;;;;;;;;;;21.40;58.50;;;;;;1571668;75;807;-74
2022/12/19 08:44:57;;;;;;;;;;;21.40;58.50;;;;;;1571369;74;901;-71
2022/12/19 08:46:59;;;;;;;;;;;21.30;58.50;;;;;;1563019;74;710;-74
2022/12/19 08:49:01;;;;;;;;;;;21.40;58.40;;;;;;1573581;74;1934;-74
2022/12/19 08:51:03;;;;;;;;;;;21.30;58.40;;;;;;1567650;74;773;-74
2022/12/19 08:53:05;;;;;;;;;;;21.40;57.90;;;;;;1566218;74;803;-74
2022/12/19 08:55:08;;;;;;;;;;;21.30;57.80;;;;;;1566957;75;682;-70
2022/12/19 08:57:10;;;;;;;;;;;21.30;57.80;;;;;;1570277;74;739;-73
2022/12/19 08:59:12;;;;;;;;;;;21.30;57.80;;;;;;1573900;74;1141;-73
2022/12/19 09:01:15;;;;;;;;;;;21.40;57.80;;;;;;1568791;75;719;-74
2022/12/19 09:03:17;;;;;;;;;;;21.40;57.70;;;;;;1571934;74;731;-73
2022/12/19 09:05:19;;;;;;;;;;;21.30;57.80;;;;;;1568638;75;720;-75
2022/12/19 09:07:21;;;;;;;;;;;21.40;57.70;;;;;;1570376;74;680;-74
2022/12/19 09:09:23;;;;;;;;;;;21.30;57.70;;;;;;1573775;74;1930;-76
2022/12/19 09:11:25;;;;;;;;;;;21.30;57.80;;;;;;1573268;75;706;-74
2022/12/19 09:13:27;;;;;;;;;;;21.30;57.80;;;;;;1570510;74;1557;-77
2022/12/19 09:15:29;;;;;;;;;;;21.30;57.70;;;;;;1573777;75;639;-75
2022/12/19 09:17:31;;;;;;;;;;;21.40;57.60;;;;;;1564067;74;723;-77
2022/12/19 09:19:33;;;;;;;;;;;21.40;57.50;;;;;;1569029;75;1118;-75
2022/12/19 09:21:34;;;;;;;;;;;21.40;57.50;;;;;;1571666;74;735;-74
2022/12/19 09:23:36;;;;;;;;;;;21.40;57.60;;;;;;1571734;74;781;-74
2022/12/19 09:25:38;;;;;;;;;;;21.40;57.50;;;;;;1559010;75;784;-74
2022/12/19 09:27:40;;;;;;;;;;;21.30;57.50;;;;;;1553859;75;708;-74
2022/12/19 09:29:42;;;;;;;;;;;21.40;57.60;;;;;;1568957;74;1956;-73
2022/12/19 09:31:44;;;;;;;;;;;21.40;57.60;;;;;;1572897;75;816;-74
2022/12/19 09:33:46;;;;;;;;;;;21.40;57.60;;;;;;1565847;74;596;-76
2022/12/19 09:35:51;;;;;;;;;;;21.40;57.70;;;;;;1564657;74;825;-73
2022/12/19 09:37:53;;;;;;;;;;;21.30;57.70;;;;;;1573460;74;1136;-75
2022/12/19 09:39:55;;;;;;;;;;;21.30;57.80;;;;;;1576478;73;223802;-60
2022/12/19 09:41:58;;;;;;;;;;;21.20;57.70;;;;;;1578810;74;697;-60
2022/12/19 09:44:20;;;;;;;;;;;21.20;57.70;;;;;;1582890;74;1899;-60
2022/12/19 09:46:23;;;;;;;;;;;21.20;57.70;;;;;;1579097;74;692;-61
2022/12/19 09:48:25;;;;;;;;;;;21.30;57.80;;;;;;1582893;73;1936;-61
2022/12/19 09:50:29;;;;;;;;;;;21.30;57.90;;;;;;1601321;73;645;-61
2022/12/19 09:52:35;;;;;;;;;;;21.30;57.90;;;;;;1603234;73;612;-62
2022/12/19 09:54:38;;;;;;;;;;;21.20;57.80;;;;;;1602754;73;669;-62
2022/12/19 09:56:40;;;;;;;;;;;21.20;57.70;;;;;;1598940;73;815;-62
2022/12/19 09:58:46;;;;;;;;;;;21.20;57.80;;;;;;1598642;73;1119;-62
2022/12/19 10:00:49;;;;;;;;;;;21.20;58.30;;;;;;1596185;73;1554;-62
2022/12/19 10:02:55;;;;;;;;;;;21.20;58.30;;;;;;1596088;73;681;-61
2022/12/19 10:05:08;;;;;;;;;;;21.20;58.30;;;;;;1604894;73;721;-62
2022/12/19 10:07:10;;;;;;;;;;;21.20;57.80;;;;;;1596155;73;1861;-62
2022/12/19 10:09:14;;;;;;;;;;;21.20;57.80;;;;;;1594198;73;1929;-62
2022/12/19 10:11:17;;;;;;;;;;;21.20;57.80;;;;;;1604060;73;1492;-62
2022/12/19 10:13:33;;;;;;;;;;;21.30;57.90;;;;;;1600169;73;702;-62
2022/12/19 10:15:36;;;;;;;;;;;21.20;57.70;;;;;;1598845;73;698;-62
2022/12/19 10:17:40;;;;;;;;;;;21.20;57.70;;;;;;1600610;73;670;-62
2022/12/19 10:19:46;;;;;;;;;;;21.20;57.70;;;;;;1598878;73;1557;-62
2022/12/19 10:21:55;;;;;;;;;;;21.20;57.70;;;;;;1599686;73;687;-61
2022/12/19 10:24:11;;;;;;;;;;;21.30;57.80;;;;;;1608065;73;727;-62
2022/12/19 10:26:15;;;;;;;;;;;21.20;57.70;;;;;;1592191;74;653;-61
2022/12/19 10:28:36;;;;;;;;;;;21.20;57.80;;;;;;1600566;73;1130;-61
2022/12/19 10:30:40;;;;;;;;;;;21.20;57.80;;;;;;1599044;73;1075;-61
2022/12/19 10:32:44;;;;;;;;;;;21.20;57.70;;;;;;1598609;73;845;-61
2022/12/19 10:34:46;;;;;;;;;;;21.20;57.70;;;;;;1597571;73;1638;-61
2022/12/19 10:36:50;;;;;;;;;;;21.20;57.70;;;;;;1600008;73;768;-61
2022/12/19 10:38:53;;;;;;;;;;;21.20;57.70;;;;;;1600188;73;1700;-61
2022/12/19 10:40:57;;;;;;;;;;;21.20;57.70;;;;;;1601337;73;778;-61
2022/12/19 10:43:11;;;;;;;;;;;21.20;57.80;;;;;;1601619;73;1758;-61
2022/12/19 10:45:15;;;;;;;;;;;21.20;57.70;;;;;;1605541;73;831;-61
2022/12/19 10:47:17;;;;;;;;;;;21.20;57.70;;;;;;1601160;73;1707;-61
2022/12/19 10:49:22;;;;;;;;;;;21.20;57.60;;;;;;1603542;73;1944;-61
2022/12/19 10:51:26;;;;;;;;;;;21.30;57.80;;;;;;1598564;73;721;-61
2022/12/19 10:53:28;;;;;;;;;;;21.20;57.70;;;;;;1597841;73;798;-61
2022/12/19 10:55:31;;;;;;;;;;;21.30;57.70;;;;;;1600036;73;1077;-61
2022/12/19 10:57:33;;;;;;;;;;;21.30;57.70;;;;;;1600084;73;1850;-62
2022/12/19 10:59:35;;;;;;;;;;;21.30;57.70;;;;;;1595460;73;1120;-61
2022/12/19 11:01:40;;;;;;;;;;;21.30;57.60;;;;;;1599889;73;703;-61
2022/12/19 11:03:43;;;;;;;;;;;21.20;57.60;;;;;;1594771;73;800;-61
2022/12/19 11:05:49;;;;;;;;;;;21.30;57.60;;;;;;1591565;73;1527;-61
2022/12/19 11:08:01;;;;;;;;;;;21.30;57.60;;;;;;1596028;73;723;-61
2022/12/19 11:10:05;;;;;;;;;;;21.30;57.50;;;;;;1598646;73;1934;-61
2022/12/19 11:12:13;;;;;;;;;;;21.30;57.50;;;;;;1594705;73;1655;-61
2022/12/19 11:14:21;;;;;;;;;;;21.30;57.60;;;;;;1598600;73;1823;-61
2022/12/19 11:16:25;;;;;;;;;;;21.30;57.60;;;;;;1601134;73;729;-61
2022/12/19 11:18:34;;;;;;;;;;;21.30;57.60;;;;;;1568985;74;1198;-60
2022/12/19 11:20:36;;;;;;;;;;;21.20;57.60;;;;;;1603785;73;602;-61
2022/12/19 11:22:37;;;;;;;;;;;21.30;57.60;;;;;;1594384;73;730;-61
2022/12/19 11:24:41;;;;;;;;;;;21.20;57.60;;;;;;1598184;73;734;-61
2022/12/19 11:26:44;;;;;;;;;;;21.20;57.60;;;;;;1600740;73;705;-61
2022/12/19 11:28:46;;;;;;;;;;;21.30;57.70;;;;;;1585874;73;1958;-61
2022/12/19 11:30:58;;;;;;;;;;;21.20;57.60;;;;;;1586802;73;698;-62
2022/12/19 11:33:07;;;;;;;;;;;21.20;57.60;;;;;;1596155;73;1029;-61
2022/12/19 11:35:17;;;;;;;;;;;21.30;57.70;;;;;;1588139;73;1002;-62
2022/12/19 11:37:23;;;;;;;;;;;21.30;57.70;;;;;;1593799;73;725;-61
2022/12/19 11:39:27;;;;;;;;;;;21.30;57.70;;;;;;1596845;73;1212;-62
2022/12/19 11:41:30;;;;;;;;;;;21.20;57.60;;;;;;1598160;73;1862;-61
2022/12/19 11:43:33;;;;;;;;;;;21.30;57.70;;;;;;1600988;73;672;-61
2022/12/19 11:45:53;;;;;;;;;;;21.20;57.70;;;;;;1603803;73;1885;-61
2022/12/19 11:47:57;;;;;;;;;;;21.30;57.80;;;;;;1599683;73;692;-61
2022/12/19 11:49:59;;;;;;;;;;;21.20;57.70;;;;;;1602531;73;1961;-61
2022/12/19 11:52:21;;;;;;;;;;;21.30;57.80;;;;;;1602167;73;799;-62
2022/12/19 11:54:34;;;;;;;;;;;21.30;57.70;;;;;;1602403;73;1831;-61
2022/12/19 11:56:36;;;;;;;;;;;21.30;57.70;;;;;;1600967;73;869;-62
2022/12/19 11:58:38;;;;;;;;;;;21.30;57.60;;;;;;1602521;73;1130;-62
2022/12/19 12:00:40;;;;;;;;;;;21.30;57.60;;;;;;1604936;73;724;-62
2022/12/19 12:02:58;;;;;;;;;;;21.30;57.60;;;;;;1604705;73;1475;-62
2022/12/19 12:05:18;;;;;;;;;;;21.30;57.60;;;;;;1593512;73;2193;-60
2022/12/19 12:07:20;;;;;;;;;;;21.20;57.60;;;;;;1596529;73;728;-61
2022/12/19 12:09:24;;;;;;;;;;;21.40;57.60;;;;;;1608829;72;1940;-61
2022/12/19 12:11:27;;;;;;;;;;;21.40;57.60;;;;;;1604226;73;728;-59
2022/12/19 12:13:31;;;;;;;;;;;21.40;57.60;;;;;;1601138;73;1988;-61
2022/12/19 12:15:40;;;;;;;;;;;21.30;57.60;;;;;;1600795;73;1807;-61
2022/12/19 12:17:56;;;;;;;;;;;21.40;57.60;;;;;;1596345;73;693;-62